Flight Track Log - Related Links

Times and Time Zones

All times are in EDT time to prevent confusion due to time zone crossing. See the SWA411 flight status page for this flight to view local times or setup timezone preferences in your user account.

Time Position Orientation Groundspeed Altitude Reporting Facility
EDT Latitude Longitude Course Direction KTS MPH feet Rate Location/Type
Thu 11:15:27 PM 39.2794 -94.7467 234° Southwest 148 170 3,300  Level Kansas City Center
Thu 11:16:28 PM 39.2283 -94.7953 216° Southwest 243 280 6,600 3,738 Climbing Kansas City Center
Thu 11:17:29 PM 39.1653 -94.8478 213° Southwest 277 319 10,900 3,463 Climbing Kansas City Center
Thu 11:18:31 PM 39.0581 -94.8794 193° South 360 414 13,700 3,073 Climbing Kansas City Center
Thu 11:19:32 PM 38.9489 -94.9100 192° South 410 472 17,200 3,312 Climbing Kansas City Center
Thu 11:20:36 PM 38.8375 -94.9408 192° South 421 484 20,600 2,829 Climbing Kansas City Center
Thu 11:21:35 PM 38.6997 -94.9789 192° South 452 520 23,000 1,171 Climbing Kansas City Center
Thu 11:22:39 PM 38.5797 -95.0133 193° South 459 528 23,000 720 Level Kansas City Center
Thu 11:23:40 PM 38.4372 -95.0528 192° South 462 532 24,500 1,686 Climbing Kansas City Center
Thu 11:24:40 PM 38.3119 -95.0894 193° South 484 557 26,400 2,115 Climbing Kansas City Center
Thu 11:25:42 PM 38.1825 -95.1225 191° South 492 566 28,800 2,390 Climbing Kansas City Center
Thu 11:26:43 PM 38.0303 -95.1753 195° South 504 580 31,300 2,508 Climbing Kansas City Center
Thu 11:27:44 PM 37.8911 -95.2225 195° South 502 578 33,900 2,274 Climbing Kansas City Center
Thu 11:28:47 PM 37.7581 -95.2661 195° South 495 570 36,000 1,810 Climbing Kansas City Center
Thu 11:29:50 PM 37.6239 -95.3108 195° South 497 572 37,700 1,805 Climbing Kansas City Center
Thu 11:30:50 PM 37.4936 -95.3558 195° South 487 560 39,700 1,140 Climbing Kansas City Center
Thu 11:31:51 PM 37.3644 -95.4003 195° South 482 555 40,000 149 Climbing Kansas City Center
Thu 11:32:51 PM 37.2339 -95.4450 195° South 485 558 40,000  Level Kansas City Center
Thu 11:33:53 PM 37.1017 -95.4869 194° South 487 560 40,000  Level Kansas City Center
Thu 11:34:54 PM 36.9428 -95.5419 195° South 493 567 40,000  Level Kansas City Center
Thu 11:35:55 PM 36.8083 -95.5872 195° South 498 573 40,000  Level Kansas City Center
Thu 11:36:56 PM 36.6753 -95.6331 195° South 500 575 40,000  Level Kansas City Center
Thu 11:38:00 PM 36.5333 -95.6800 195° South 500 575 40,000  Level Kansas City Center
Thu 11:39:01 PM 36.3994 -95.7214 194° South 496 571 40,000  Level Kansas City Center
Thu 11:40:01 PM 36.2786 -95.7619 195° South 495 570 40,000  Level Kansas City Center
Thu 11:41:02 PM 36.1425 -95.7714 183° South 506 582 40,000  Level Kansas City Center
Thu 11:42:03 PM 35.9781 -95.7169 165° South 512 589 40,000  Level Kansas City Center
Thu 11:43:05 PM 35.8408 -95.6722 165° South 512 589 40,000  Level Kansas City Center
Thu 11:44:06 PM 35.7056 -95.6294 166° South 507 583 40,000  Level Kansas City Center
Thu 11:45:07 PM 35.5686 -95.5853 165° South 507 583 40,000  Level Kansas City Center
Thu 11:46:08 PM 35.4289 -95.5603 172° South 509 586 40,000  Level Kansas City Center
Thu 11:47:12 PM 35.2900 -95.5483 176° South 501 577 40,000  Level Kansas City Center
Thu 11:48:12 PM 35.1500 -95.5331 175° South 503 579 40,000  Level Kansas City Center
Thu 11:49:14 PM 35.0108 -95.5189 175° South 501 577 40,000  Level Kansas City Center
Thu 11:50:13 PM 34.8725 -95.5039 175° South 499 574 40,000  Level Kansas City Center
Thu 11:51:16 PM 34.7158 -95.4878 175° South 498 573 40,000  Level Kansas City Center
Thu 11:52:34 PM 34.5433 -95.5453 195° South 476 548 40,000  Level Fort Worth Center
Thu 11:53:34 PM 34.4297 -95.6108 205° Southwest 481 554 40,000  Level Fort Worth Center
Thu 11:54:34 PM 34.3158 -95.6861 209° Southwest 475 547 40,000 -300 Level Fort Worth Center
Thu 11:55:34 PM 34.1978 -95.7561 206° Southwest 475 547 39,400 -1,700 Descending Fort Worth Center
Thu 11:56:34 PM 34.0883 -95.8286 209° Southwest 469 540 36,600 -3,500 Descending Fort Worth Center
Thu 11:57:34 PM 33.9681 -95.9033 207° Southwest 469 540 32,400 1,700 Descending Fort Worth Center
Thu 11:58:34 PM 33.8481 -95.9756 207° Southwest 469 540 40,000 -3,850 Climbing Fort Worth Center
Thu 11:59:34 PM 33.7319 -96.0447 206° Southwest 469 540 24,700 -9,550 Descending Fort Worth Center
Fri 12:00:34 AM 33.6136 -96.1214 208° Southwest 453 521 20,900 -3,350 Descending Fort Worth Center
Fri 12:01:34 AM 33.5161 -96.1803 207° Southwest 447 514 18,000 -3,250 Descending Fort Worth Center
Fri 12:02:34 AM 33.4061 -96.2514 208° Southwest 420 483 14,400 -3,400 Descending Fort Worth Center
Fri 12:03:34 AM 33.3381 -96.3319 225° Southwest 401 461 11,200 -2,694 Descending Fort Worth Center
Fri 12:04:12 AM 33.2833 -96.4000 226° Southwest 384 442 10,000 -742 Descending Dallas / Fort Worth TRACON
Fri 12:05:11 AM 33.2167 -96.4833 226° Southwest 314 361 10,000 -700 Level Dallas / Fort Worth TRACON
Fri 12:06:12 AM 33.1667 -96.5667 234° Southwest 294 338 8,600 -1,488 Descending Dallas / Fort Worth TRACON
Fri 12:07:12 AM 33.1167 -96.6333 228° Southwest 273 314 7,000 -2,100 Descending Dallas / Fort Worth TRACON
Fri 12:08:12 AM 33.0667 -96.7000 228° Southwest 267 307 4,400 -2,000 Descending Dallas / Fort Worth TRACON
Fri 12:09:12 AM 33.0167 -96.7667 228° Southwest 276 318 3,000 -700 Descending Dallas / Fort Worth TRACON
Fri 12:10:12 AM 32.9667 -96.8333 228° Southwest 271 312 3,000  Level Dallas / Fort Worth TRACON
Fri 12:11:12 AM 32.9333 -96.8833 232° Southwest 189 217 3,000 -450 Level Dallas / Fort Worth TRACON
Fri 12:12:12 AM 32.9000 -96.9167 220° Southwest 124 143 2,100 -952 Descending Dallas / Fort Worth TRACON
Fri 12:13:18 AM 32.8667 -96.8833 140° Southeast 116 133 1,000 -1,000 Descending Dallas / Fort Worth TRACON

Login

Don't have an account? Register now (free) for customized features, flight alerts, and more!